Time;durP1;ratioP1;P1;durP2;ratioP2;P2;SDS_P1;SDS_P2;PMS_P1;PMS_P2;Temp;Humidity;BMP_temperature;BMP_pressure;BME280_temperature;BME280_humidity;BME280_pressure;Samples;Min_cycle;Max_cycle;Signal;HPM_P1;HPM_P2
2022/10/08 00:08:01;;;;;;;8.45;7.18;;;;;;;14.66;70.42;100399.31;30855932;28;96735;-62
2022/10/08 00:23:01;;;;;;;10.23;8.13;;;;;;;14.53;70.56;100384.75;30854638;28;96695;-62
2022/10/08 00:38:01;;;;;;;13.73;8.23;;;;;;;14.37;70.77;100385.00;30852669;28;115821;-62
2022/10/08 00:53:06;;;;;;;10.38;7.88;;;;;;;14.16;71.18;100356.31;30853125;28;96692;-63
2022/10/08 01:08:45;;;;;;;9.60;7.70;;;;;;;14.10;71.43;100336.47;30851451;28;97446;-66
2022/10/08 01:23:51;;;;;;;8.70;7.80;;;;;;;14.16;72.05;100335.72;30851174;28;96992;-63
2022/10/08 01:39:00;;;;;;;10.83;7.47;;;;;;;14.22;71.89;100313.50;30857285;28;97201;-63
2022/10/08 01:54:04;;;;;;;12.73;8.83;;;;;;;14.14;71.92;100305.59;30869198;28;97011;-63
2022/10/08 02:09:05;;;;;;;10.63;8.10;;;;;;;14.05;71.91;100288.00;30867362;28;97730;-63
2022/10/08 02:24:15;;;;;;;10.88;8.35;;;;;;;13.81;72.22;100282.00;30864526;28;97445;-65
2022/10/08 02:39:18;;;;;;;11.20;8.23;;;;;;;13.52;73.11;100289.06;30864226;28;97398;-65
2022/10/08 02:54:21;;;;;;;9.53;8.37;;;;;;;13.52;73.40;100289.06;30862535;28;97357;-65
2022/10/08 03:09:24;;;;;;;12.17;9.40;;;;;;;13.64;73.79;100301.97;30859996;28;96766;-65
2022/10/08 03:24:24;;;;;;;13.63;9.40;;;;;;;13.69;74.06;100300.38;30858855;28;97252;-64
2022/10/08 03:39:24;;;;;;;12.00;8.98;;;;;;;13.61;74.12;100287.09;30855167;28;109423;-64
2022/10/08 03:54:25;;;;;;;10.57;9.52;;;;;;;13.69;74.69;100280.81;30856128;28;96656;-64
2022/10/08 04:09:25;;;;;;;12.45;9.48;;;;;;;13.80;74.53;100274.97;30854095;28;109865;-64
2022/10/08 04:24:25;;;;;;;10.77;9.68;;;;;;;13.82;74.54;100274.78;30851436;28;113001;-64
2022/10/08 04:39:26;;;;;;;12.88;10.13;;;;;;;13.73;74.74;100275.94;30851095;28;117325;-64
2022/10/08 04:54:26;;;;;;;12.65;10.50;;;;;;;13.52;74.80;100278.38;30850913;28;113923;-63
2022/10/08 05:09:26;;;;;;;11.15;10.05;;;;;;;13.48;75.45;100281.63;30851442;28;96855;-65
2022/10/08 05:24:27;;;;;;;12.30;10.38;;;;;;;13.45;75.41;100274.78;30868053;28;117402;-65
2022/10/08 05:39:27;;;;;;;12.70;10.88;;;;;;;13.34;75.00;100288.59;30866988;28;118294;-64
2022/10/08 05:54:27;;;;;;;17.58;11.70;;;;;;;13.36;75.59;100302.66;30866031;28;110840;-64
2022/10/08 06:09:28;;;;;;;15.77;12.57;;;;;;;13.67;75.83;100298.94;30864241;28;96813;-63
2022/10/08 06:24:28;;;;;;;13.45;12.02;;;;;;;14.15;75.42;100291.19;30858988;28;96740;-63
2022/10/08 06:39:28;;;;;;;26.80;22.98;;;;;;;14.60;74.87;100299.03;30864080;28;96812;-65
2022/10/08 06:54:29;;;;;;;14.48;11.73;;;;;;;15.95;73.85;100293.38;30860206;28;96812;-64
2022/10/08 07:09:29;;;;;;;12.00;10.48;;;;;;;16.95;71.40;100297.16;30858753;28;96764;-64
2022/10/08 07:24:30;;;;;;;16.92;10.95;;;;;;;17.69;69.34;100300.47;30855955;28;96820;-66
2022/10/08 07:39:30;;;;;;;12.38;9.98;;;;;;;18.04;67.15;100303.63;30853364;28;117522;-65
2022/10/08 07:54:30;;;;;;;13.48;10.13;;;;;;;18.41;65.25;100300.22;30900324;28;108591;-64
2022/10/08 08:09:31;;;;;;;14.10;10.45;;;;;;;18.65;64.29;100292.38;30968523;28;97397;-64
2022/10/08 08:24:31;;;;;;;12.27;8.88;;;;;;;19.56;62.84;100308.88;30945921;28;96729;-64
2022/10/08 08:39:32;;;;;;;10.05;9.02;;;;;;;22.11;57.30;100298.00;30877060;28;96873;-63
2022/10/08 08:54:33;;;;;;;10.30;7.60;;;;;;;26.70;46.21;100310.13;30956241;28;97351;-64
2022/10/08 09:09:41;;;;;;;15.85;8.48;;;;;;;24.91;48.58;100292.16;30881294;28;96730;-62
2022/10/08 09:24:41;;;;;;;13.50;8.03;;;;;;;23.11;46.19;100302.03;30919547;28;97695;-63
2022/10/08 09:40:01;;;;;;;;;;;;;;;21.68;48.67;100321.09;30990371;28;96839;-66
2022/10/08 09:55:08;;;;;;;13.80;8.50;;;;;;;21.35;49.30;100313.59;30937634;28;97173;-66
2022/10/08 10:10:17;;;;;;;23.17;12.77;;;;;;;20.89;50.28;100325.06;30921786;28;96719;-65
2022/10/08 10:25:45;;;;;;;13.47;9.10;;;;;;;23.26;47.43;100306.88;30918498;28;96891;-64
2022/10/08 10:41:13;;;;;;;14.93;8.50;;;;;;;24.91;42.29;100303.06;30966580;28;98521;-67
2022/10/08 10:56:19;;;;;;;11.20;8.47;;;;;;;22.03;46.54;100295.69;30978852;28;97297;-66
2022/10/08 11:11:31;;;;;;;12.13;7.33;;;;;;;21.33;48.44;100277.78;30926395;28;97659;-62
2022/10/08 11:26:59;;;;;;;10.80;7.70;;;;;;;21.12;49.10;100266.53;30971879;28;97340;-62
2022/10/08 11:42:15;;;;;;;13.93;8.50;;;;;;;19.91;51.52;100283.91;30968851;28;97416;-62
2022/10/08 11:57:32;;;;;;;12.07;7.73;;;;;;;18.93;53.66;100283.81;30925979;28;97288;-65
2022/10/08 12:12:59;;;;;;;15.97;9.63;;;;;;;18.47;55.86;100255.41;30847210;28;97569;-64
2022/10/08 12:28:18;;;;;;;17.23;9.80;;;;;;;17.95;57.12;100266.31;30849420;28;97148;-61
2022/10/08 12:43:49;;;;;;;14.13;10.33;;;;;;;17.79;58.13;100267.66;30849930;28;97339;-60
2022/10/08 12:58:58;;;;;;;14.37;10.17;;;;;;;17.59;59.06;100264.03;30850229;28;97549;-59
2022/10/08 13:13:58;;;;;;;16.07;10.87;;;;;;;17.54;60.03;100280.00;30848815;28;96811;-59
2022/10/08 13:29:17;;;;;;;22.20;12.75;;;;;;;17.46;60.67;100282.94;30889314;28;96989;-60
2022/10/08 13:44:17;;;;;;;16.87;12.00;;;;;;;17.27;61.17;100286.53;30979768;28;98740;-59
2022/10/08 13:59:19;;;;;;;19.75;13.10;;;;;;;17.14;61.86;100288.22;30980194;28;97095;-60
2022/10/08 14:14:20;;;;;;;18.33;12.87;;;;;;;17.16;62.60;100291.50;30978535;28;97640;-60
2022/10/08 14:29:20;;;;;;;20.27;13.63;;;;;;;17.05;62.93;100293.00;30976838;28;97529;-64
2022/10/08 14:44:21;;;;;;;20.33;14.93;;;;;;;16.96;63.30;100288.88;30973814;28;97207;-60
2022/10/08 14:59:21;;;;;;;20.85;13.57;;;;;;;16.82;64.07;100281.84;30974554;28;97565;-60
2022/10/08 15:14:22;;;;;;;20.45;12.05;;;;;;;16.75;64.28;100289.91;30971078;28;97344;-64
2022/10/08 15:29:23;;;;;;;18.27;12.47;;;;;;;16.50;64.25;100320.13;30970108;28;96823;-59
2022/10/08 15:44:24;;;;;;;18.02;10.20;;;;;;;16.21;64.73;100332.91;30946681;28;97642;-64
2022/10/08 15:59:25;;;;;;;12.00;7.40;;;;;;;15.93;64.97;100361.78;30967280;28;96685;-64
2022/10/08 16:14:26;;;;;;;15.15;6.82;;;;;;;15.81;64.38;100380.31;30884804;28;97220;-65
2022/10/08 16:29:27;;;;;;;9.13;5.80;;;;;;;15.47;64.37;100393.53;30861946;28;97285;-64
2022/10/08 16:44:27;;;;;;;9.05;5.25;;;;;;;15.37;63.26;100412.69;30962740;28;96747;-64
2022/10/08 16:59:28;;;;;;;8.25;3.88;;;;;;;15.08;62.73;100427.13;30864731;28;97661;-63
2022/10/08 17:14:31;;;;;;;8.67;3.93;;;;;;;14.81;62.44;100448.34;30974061;28;98048;-63
2022/10/08 17:29:32;;;;;;;5.63;3.17;;;;;;;14.60;62.06;100465.25;30993251;28;97560;-63
2022/10/08 17:44:32;;;;;;;8.52;3.58;;;;;;;14.29;61.59;100485.09;30988274;28;97645;-64
2022/10/08 17:59:32;;;;;;;7.63;3.40;;;;;;;14.03;61.64;100501.66;30986612;28;96892;-63
2022/10/08 18:14:33;;;;;;;11.25;4.50;;;;;;;13.64;61.76;100525.00;30975266;28;112291;-66
2022/10/08 18:29:33;;;;;;;10.75;4.53;;;;;;;13.13;62.55;100557.66;30941478;28;98654;-63
2022/10/08 18:44:34;;;;;;;10.63;4.47;;;;;;;12.97;63.53;100568.47;30895187;28;117045;-63
2022/10/08 18:59:34;;;;;;;8.38;3.63;;;;;;;12.77;63.43;100584.13;30907905;28;96988;-63
2022/10/08 19:14:34;;;;;;;8.15;2.90;;;;;;;12.46;64.37;100623.16;30977303;28;121946;-62
2022/10/08 19:29:35;;;;;;;6.40;2.25;;;;;;;12.23;65.12;100635.59;30977574;28;96789;-63
2022/10/08 19:44:35;;;;;;;7.10;2.40;;;;;;;12.17;66.41;100663.81;30979181;28;96858;-64
2022/10/08 19:59:35;;;;;;;6.95;2.47;;;;;;;12.38;66.96;100683.81;30979370;28;97395;-62
2022/10/08 20:14:36;;;;;;;6.90;2.95;;;;;;;12.41;67.46;100694.16;30976395;28;111004;-61
2022/10/08 20:29:36;;;;;;;5.63;2.70;;;;;;;12.26;67.96;100702.88;30976855;28;99945;-63
2022/10/08 20:44:36;;;;;;;6.60;3.05;;;;;;;11.80;69.02;100732.69;30972797;28;120942;-62
2022/10/08 20:59:37;;;;;;;7.68;3.15;;;;;;;11.55;70.36;100741.66;30973542;28;117850;-61
2022/10/08 21:14:37;;;;;;;9.63;3.83;;;;;;;11.39;71.06;100767.28;30972600;28;96742;-62
2022/10/08 21:29:37;;;;;;;5.78;3.03;;;;;;;11.05;71.93;100781.47;30929354;28;118211;-62
2022/10/08 21:44:38;;;;;;;5.68;2.72;;;;;;;10.72;72.32;100778.63;30892991;28;97860;-61
2022/10/08 21:59:38;;;;;;;5.85;2.83;;;;;;;10.41;72.84;100789.72;30984615;28;96739;-61
2022/10/08 22:14:38;;;;;;;4.72;2.78;;;;;;;9.99;73.93;100803.63;30989825;28;112740;-61
2022/10/08 22:29:38;;;;;;;6.40;3.15;;;;;;;9.71;74.54;100814.31;30989890;28;119533;-61
2022/10/08 22:44:39;;;;;;;7.10;3.50;;;;;;;9.56;75.06;100826.47;30986369;28;116733;-61
2022/10/08 22:59:39;;;;;;;7.45;3.67;;;;;;;9.41;75.96;100826.94;30985630;28;113737;-62
2022/10/08 23:14:39;;;;;;;5.68;2.53;;;;;;;9.26;76.29;100839.03;30984459;28;115414;-61
2022/10/08 23:29:40;;;;;;;4.40;2.78;;;;;;;9.05;76.38;100863.16;30983270;28;115824;-62
2022/10/08 23:44:40;;;;;;;4.40;2.67;;;;;;;8.90;76.50;100876.91;30983138;28;96698;-62
2022/10/08 23:59:40;;;;;;;5.70;3.10;;;;;;;8.85;77.04;100897.75;30981186;28;97501;-62
